Terminal Aerodrome Forecast
Issued by NWS Sterling, VA

Home | Current Version | Previous Version | Text Only | Print | Product List | Glossary On
Versions: 1 2 3 4 5 6 7 8 9 10 11 12 13 14 15 16 17 18 19 20 21 22
000
FTUS41 KLWX 201500 AAA
TAFBWI
TAF AMD
KBWI 201503Z 2015/2118 14005KT P6SM BKN050
     FM202200 15005KT P6SM VCTS BKN050CB
     FM210100 VRB04KT P6SM BKN050
     FM210800 VRB03KT P6SM SCT008 BKN015
     FM211500 21005KT P6SM BKN050=

USA.gov is the U.S. government's official web portal to all federal, state and local government web resources and services.